sensor_id;sensor_type;location;lat;lon;timestamp;P1;durP1;ratioP1;P2;durP2;ratioP2
52208;SDS011;38507;53.132;6.394;2023-03-01T00:01:58;19.35;;;10.80;;
52208;SDS011;38507;53.132;6.394;2023-03-01T00:04:24;17.58;;;11.43;;
52208;SDS011;38507;53.132;6.394;2023-03-01T00:06:49;21.35;;;10.90;;
52208;SDS011;38507;53.132;6.394;2023-03-01T00:09:16;17.30;;;9.73;;
52208;SDS011;38507;53.132;6.394;2023-03-01T00:11:42;14.90;;;10.00;;
52208;SDS011;38507;53.132;6.394;2023-03-01T00:14:08;15.73;;;9.38;;
52208;SDS011;38507;53.132;6.394;2023-03-01T00:16:35;15.95;;;8.98;;
52208;SDS011;38507;53.132;6.394;2023-03-01T00:19:05;15.35;;;9.23;;
52208;SDS011;38507;53.132;6.394;2023-03-01T00:21:51;18.02;;;11.27;;
52208;SDS011;38507;53.132;6.394;2023-03-01T00:24:17;17.65;;;11.07;;
52208;SDS011;38507;53.132;6.394;2023-03-01T00:26:43;17.90;;;10.48;;
52208;SDS011;38507;53.132;6.394;2023-03-01T00:29:08;17.73;;;9.73;;
52208;SDS011;38507;53.132;6.394;2023-03-01T00:31:34;15.68;;;9.48;;
52208;SDS011;38507;53.132;6.394;2023-03-01T00:34:02;14.98;;;9.48;;
52208;SDS011;38507;53.132;6.394;2023-03-01T00:36:30;18.42;;;10.27;;
52208;SDS011;38507;53.132;6.394;2023-03-01T00:38:58;16.55;;;10.43;;
52208;SDS011;38507;53.132;6.394;2023-03-01T00:41:24;15.73;;;9.38;;
52208;SDS011;38507;53.132;6.394;2023-03-01T00:43:51;15.57;;;9.73;;
52208;SDS011;38507;53.132;6.394;2023-03-01T00:46:19;17.15;;;9.70;;
52208;SDS011;38507;53.132;6.394;2023-03-01T00:48:46;15.18;;;9.70;;
52208;SDS011;38507;53.132;6.394;2023-03-01T00:51:12;15.30;;;9.75;;
52208;SDS011;38507;53.132;6.394;2023-03-01T00:53:43;17.23;;;10.25;;
52208;SDS011;38507;53.132;6.394;2023-03-01T00:56:10;16.77;;;10.05;;
52208;SDS011;38507;53.132;6.394;2023-03-01T00:58:37;17.95;;;8.60;;
52208;SDS011;38507;53.132;6.394;2023-03-01T01:01:08;14.05;;;8.93;;
52208;SDS011;38507;53.132;6.394;2023-03-01T01:03:44;15.20;;;9.52;;
52208;SDS011;38507;53.132;6.394;2023-03-01T01:06:14;17.17;;;10.25;;
52208;SDS011;38507;53.132;6.394;2023-03-01T01:08:44;15.88;;;9.55;;
52208;SDS011;38507;53.132;6.394;2023-03-01T01:11:10;14.05;;;9.07;;
52208;SDS011;38507;53.132;6.394;2023-03-01T01:13:37;19.30;;;10.43;;
52208;SDS011;38507;53.132;6.394;2023-03-01T01:16:04;15.98;;;10.32;;
52208;SDS011;38507;53.132;6.394;2023-03-01T01:18:30;17.45;;;10.43;;
52208;SDS011;38507;53.132;6.394;2023-03-01T01:20:55;18.50;;;11.35;;
52208;SDS011;38507;53.132;6.394;2023-03-01T01:23:21;22.90;;;13.48;;
52208;SDS011;38507;53.132;6.394;2023-03-01T01:25:47;27.92;;;15.77;;
52208;SDS011;38507;53.132;6.394;2023-03-01T01:28:12;30.95;;;17.02;;
52208;SDS011;38507;53.132;6.394;2023-03-01T01:30:38;27.70;;;16.15;;
52208;SDS011;38507;53.132;6.394;2023-03-01T01:33:04;30.20;;;16.13;;
52208;SDS011;38507;53.132;6.394;2023-03-01T01:35:29;30.63;;;16.40;;
52208;SDS011;38507;53.132;6.394;2023-03-01T01:37:55;31.02;;;16.65;;
52208;SDS011;38507;53.132;6.394;2023-03-01T01:40:20;29.05;;;16.95;;
52208;SDS011;38507;53.132;6.394;2023-03-01T01:42:46;28.63;;;15.88;;
52208;SDS011;38507;53.132;6.394;2023-03-01T01:45:25;57.53;;;22.48;;
52208;SDS011;38507;53.132;6.394;2023-03-01T01:47:52;39.88;;;20.88;;
52208;SDS011;38507;53.132;6.394;2023-03-01T01:50:19;40.42;;;21.02;;
52208;SDS011;38507;53.132;6.394;2023-03-01T01:52:45;34.90;;;18.45;;
52208;SDS011;38507;53.132;6.394;2023-03-01T01:55:18;29.33;;;17.20;;
52208;SDS011;38507;53.132;6.394;2023-03-01T01:57:51;33.17;;;17.37;;
52208;SDS011;38507;53.132;6.394;2023-03-01T02:00:25;34.08;;;18.23;;
52208;SDS011;38507;53.132;6.394;2023-03-01T02:03:11;31.98;;;16.48;;
52208;SDS011;38507;53.132;6.394;2023-03-01T02:08:37;40.85;;;17.98;;
52208;SDS011;38507;53.132;6.394;2023-03-01T02:11:05;81.22;;;21.05;;
52208;SDS011;38507;53.132;6.394;2023-03-01T02:13:32;64.95;;;19.35;;
52208;SDS011;38507;53.132;6.394;2023-03-01T02:15:58;62.25;;;19.58;;
52208;SDS011;38507;53.132;6.394;2023-03-01T02:18:27;49.55;;;18.65;;
52208;SDS011;38507;53.132;6.394;2023-03-01T02:24:01;92.22;;;20.33;;
52208;SDS011;38507;53.132;6.394;2023-03-01T02:26:49;107.40;;;22.10;;
52208;SDS011;38507;53.132;6.394;2023-03-01T02:29:17;181.68;;;26.08;;
52208;SDS011;38507;53.132;6.394;2023-03-01T02:31:43;98.32;;;21.92;;
52208;SDS011;38507;53.132;6.394;2023-03-01T02:34:14;55.92;;;22.90;;
52208;SDS011;38507;53.132;6.394;2023-03-01T02:37:14;52.22;;;20.13;;
52208;SDS011;38507;53.132;6.394;2023-03-01T02:39:39;62.78;;;17.48;;
52208;SDS011;38507;53.132;6.394;2023-03-01T02:42:09;60.22;;;18.05;;
52208;SDS011;38507;53.132;6.394;2023-03-01T02:44:38;52.80;;;19.27;;
52208;SDS011;38507;53.132;6.394;2023-03-01T02:47:04;64.50;;;19.77;;
52208;SDS011;38507;53.132;6.394;2023-03-01T02:49:32;51.70;;;17.80;;
52208;SDS011;38507;53.132;6.394;2023-03-01T02:57:23;51.83;;;15.00;;
52208;SDS011;38507;53.132;6.394;2023-03-01T02:59:49;50.47;;;14.32;;
52208;SDS011;38507;53.132;6.394;2023-03-01T03:02:23;54.38;;;16.00;;
52208;SDS011;38507;53.132;6.394;2023-03-01T03:05:11;97.20;;;18.63;;
52208;SDS011;38507;53.132;6.394;2023-03-01T03:07:42;61.40;;;16.00;;
52208;SDS011;38507;53.132;6.394;2023-03-01T03:10:11;45.80;;;14.32;;
52208;SDS011;38507;53.132;6.394;2023-03-01T03:12:40;31.77;;;14.68;;
52208;SDS011;38507;53.132;6.394;2023-03-01T03:15:06;45.58;;;13.93;;
52208;SDS011;38507;53.132;6.394;2023-03-01T03:17:37;71.53;;;15.95;;
52208;SDS011;38507;53.132;6.394;2023-03-01T03:20:04;75.80;;;15.75;;
52208;SDS011;38507;53.132;6.394;2023-03-01T03:22:31;45.40;;;15.50;;
52208;SDS011;38507;53.132;6.394;2023-03-01T03:24:59;29.63;;;15.18;;
52208;SDS011;38507;53.132;6.394;2023-03-01T03:27:24;62.47;;;14.93;;
52208;SDS011;38507;53.132;6.394;2023-03-01T03:29:50;108.35;;;16.90;;
52208;SDS011;38507;53.132;6.394;2023-03-01T03:32:16;68.63;;;15.95;;
52208;SDS011;38507;53.132;6.394;2023-03-01T03:34:41;57.60;;;16.00;;
52208;SDS011;38507;53.132;6.394;2023-03-01T03:37:07;60.08;;;15.52;;
52208;SDS011;38507;53.132;6.394;2023-03-01T03:39:52;29.42;;;15.02;;
52208;SDS011;38507;53.132;6.394;2023-03-01T03:42:20;24.40;;;13.98;;
52208;SDS011;38507;53.132;6.394;2023-03-01T03:44:47;23.65;;;14.25;;
52208;SDS011;38507;53.132;6.394;2023-03-01T03:47:13;24.75;;;13.98;;
52208;SDS011;38507;53.132;6.394;2023-03-01T03:49:39;26.70;;;15.00;;
52208;SDS011;38507;53.132;6.394;2023-03-01T03:52:04;29.38;;;16.60;;
52208;SDS011;38507;53.132;6.394;2023-03-01T03:54:38;25.33;;;14.60;;
52208;SDS011;38507;53.132;6.394;2023-03-01T03:57:05;33.10;;;16.08;;
52208;SDS011;38507;53.132;6.394;2023-03-01T03:59:31;32.85;;;14.43;;
52208;SDS011;38507;53.132;6.394;2023-03-01T04:01:57;30.80;;;15.93;;
52208;SDS011;38507;53.132;6.394;2023-03-01T04:04:23;32.42;;;15.05;;
52208;SDS011;38507;53.132;6.394;2023-03-01T04:06:48;26.20;;;15.05;;
52208;SDS011;38507;53.132;6.394;2023-03-01T04:09:14;37.42;;;14.70;;
52208;SDS011;38507;53.132;6.394;2023-03-01T04:11:39;38.80;;;15.07;;
52208;SDS011;38507;53.132;6.394;2023-03-01T04:14:05;57.72;;;15.15;;
52208;SDS011;38507;53.132;6.394;2023-03-01T04:16:31;44.75;;;14.45;;
52208;SDS011;38507;53.132;6.394;2023-03-01T04:18:56;35.20;;;14.43;;
52208;SDS011;38507;53.132;6.394;2023-03-01T04:21:24;33.70;;;14.43;;
52208;SDS011;38507;53.132;6.394;2023-03-01T04:23:50;54.22;;;14.90;;
52208;SDS011;38507;53.132;6.394;2023-03-01T04:26:17;27.77;;;14.25;;
52208;SDS011;38507;53.132;6.394;2023-03-01T04:28:44;26.70;;;13.93;;
52208;SDS011;38507;53.132;6.394;2023-03-01T04:31:15;22.85;;;12.90;;
52208;SDS011;38507;53.132;6.394;2023-03-01T04:33:44;20.70;;;12.60;;
52208;SDS011;38507;53.132;6.394;2023-03-01T04:36:16;36.75;;;15.18;;
52208;SDS011;38507;53.132;6.394;2023-03-01T04:38:43;28.20;;;14.40;;
52208;SDS011;38507;53.132;6.394;2023-03-01T04:41:12;21.58;;;13.13;;
52208;SDS011;38507;53.132;6.394;2023-03-01T04:43:39;32.80;;;14.00;;
52208;SDS011;38507;53.132;6.394;2023-03-01T04:46:06;26.02;;;14.50;;
52208;SDS011;38507;53.132;6.394;2023-03-01T04:48:34;22.33;;;12.90;;
52208;SDS011;38507;53.132;6.394;2023-03-01T04:51:01;23.75;;;14.13;;
52208;SDS011;38507;53.132;6.394;2023-03-01T04:53:28;24.15;;;13.65;;
52208;SDS011;38507;53.132;6.394;2023-03-01T04:55:54;50.35;;;15.95;;
52208;SDS011;38507;53.132;6.394;2023-03-01T04:58:21;37.33;;;15.75;;
52208;SDS011;38507;53.132;6.394;2023-03-01T05:00:48;54.90;;;16.88;;
52208;SDS011;38507;53.132;6.394;2023-03-01T05:03:13;38.25;;;15.60;;
52208;SDS011;38507;53.132;6.394;2023-03-01T05:05:43;35.53;;;14.77;;
52208;SDS011;38507;53.132;6.394;2023-03-01T05:08:10;29.45;;;14.35;;
52208;SDS011;38507;53.132;6.394;2023-03-01T05:10:43;25.05;;;12.90;;
52208;SDS011;38507;53.132;6.394;2023-03-01T05:13:11;30.67;;;14.25;;
52208;SDS011;38507;53.132;6.394;2023-03-01T05:15:38;35.00;;;14.27;;
52208;SDS011;38507;53.132;6.394;2023-03-01T05:18:04;28.98;;;14.43;;
52208;SDS011;38507;53.132;6.394;2023-03-01T05:20:36;42.58;;;15.07;;
52208;SDS011;38507;53.132;6.394;2023-03-01T05:23:02;40.72;;;14.10;;
52208;SDS011;38507;53.132;6.394;2023-03-01T05:25:30;29.60;;;13.45;;
52208;SDS011;38507;53.132;6.394;2023-03-01T05:28:01;26.27;;;13.05;;
52208;SDS011;38507;53.132;6.394;2023-03-01T05:30:32;30.45;;;12.40;;
52208;SDS011;38507;53.132;6.394;2023-03-01T05:32:58;34.92;;;12.40;;
52208;SDS011;38507;53.132;6.394;2023-03-01T05:35:24;44.25;;;12.45;;
52208;SDS011;38507;53.132;6.394;2023-03-01T05:37:50;41.23;;;14.97;;
52208;SDS011;38507;53.132;6.394;2023-03-01T05:40:19;25.60;;;12.57;;
52208;SDS011;38507;53.132;6.394;2023-03-01T05:42:47;26.95;;;12.20;;
52208;SDS011;38507;53.132;6.394;2023-03-01T05:45:18;31.67;;;12.98;;
52208;SDS011;38507;53.132;6.394;2023-03-01T05:47:44;25.77;;;13.37;;
52208;SDS011;38507;53.132;6.394;2023-03-01T05:50:13;40.92;;;13.15;;
52208;SDS011;38507;53.132;6.394;2023-03-01T05:52:39;28.43;;;12.77;;
52208;SDS011;38507;53.132;6.394;2023-03-01T05:55:05;35.72;;;13.57;;
52208;SDS011;38507;53.132;6.394;2023-03-01T05:57:31;34.23;;;13.07;;
52208;SDS011;38507;53.132;6.394;2023-03-01T05:59:57;20.37;;;12.27;;
52208;SDS011;38507;53.132;6.394;2023-03-01T06:02:22;29.77;;;13.27;;
52208;SDS011;38507;53.132;6.394;2023-03-01T06:04:48;23.17;;;12.33;;
52208;SDS011;38507;53.132;6.394;2023-03-01T06:07:13;22.90;;;12.80;;
52208;SDS011;38507;53.132;6.394;2023-03-01T06:09:39;28.50;;;13.13;;
52208;SDS011;38507;53.132;6.394;2023-03-01T06:12:05;25.87;;;12.70;;
52208;SDS011;38507;53.132;6.394;2023-03-01T06:14:30;24.83;;;12.63;;
52208;SDS011;38507;53.132;6.394;2023-03-01T06:16:57;23.67;;;12.97;;
52208;SDS011;38507;53.132;6.394;2023-03-01T06:19:23;24.90;;;12.97;;
52208;SDS011;38507;53.132;6.394;2023-03-01T06:21:48;21.30;;;11.87;;
52208;SDS011;38507;53.132;6.394;2023-03-01T06:24:14;25.20;;;12.37;;
52208;SDS011;38507;53.132;6.394;2023-03-01T06:26:40;21.60;;;11.43;;
52208;SDS011;38507;53.132;6.394;2023-03-01T06:29:05;24.13;;;12.63;;
52208;SDS011;38507;53.132;6.394;2023-03-01T06:31:31;21.47;;;11.50;;
52208;SDS011;38507;53.132;6.394;2023-03-01T06:33:56;19.40;;;11.30;;
52208;SDS011;38507;53.132;6.394;2023-03-01T06:36:22;20.43;;;11.37;;
52208;SDS011;38507;53.132;6.394;2023-03-01T06:38:48;20.60;;;11.13;;
52208;SDS011;38507;53.132;6.394;2023-03-01T06:41:13;22.43;;;10.83;;
52208;SDS011;38507;53.132;6.394;2023-03-01T06:43:39;19.27;;;10.73;;
52208;SDS011;38507;53.132;6.394;2023-03-01T06:46:05;18.43;;;11.17;;
52208;SDS011;38507;53.132;6.394;2023-03-01T06:48:32;21.77;;;11.00;;
52208;SDS011;38507;53.132;6.394;2023-03-01T06:50:59;19.77;;;11.40;;
52208;SDS011;38507;53.132;6.394;2023-03-01T06:53:28;19.73;;;11.00;;
52208;SDS011;38507;53.132;6.394;2023-03-01T06:55:57;20.43;;;11.77;;
52208;SDS011;38507;53.132;6.394;2023-03-01T06:58:26;20.50;;;10.77;;
52208;SDS011;38507;53.132;6.394;2023-03-01T07:00:52;18.73;;;10.83;;
52208;SDS011;38507;53.132;6.394;2023-03-01T07:03:17;20.73;;;12.17;;
52208;SDS011;38507;53.132;6.394;2023-03-01T07:05:43;21.93;;;10.97;;
52208;SDS011;38507;53.132;6.394;2023-03-01T07:08:09;16.50;;;10.73;;
52208;SDS011;38507;53.132;6.394;2023-03-01T07:10:35;18.73;;;10.73;;
52208;SDS011;38507;53.132;6.394;2023-03-01T07:13:01;18.53;;;9.87;;
52208;SDS011;38507;53.132;6.394;2023-03-01T07:15:27;18.23;;;10.43;;
52208;SDS011;38507;53.132;6.394;2023-03-01T07:17:53;20.63;;;11.07;;
52208;SDS011;38507;53.132;6.394;2023-03-01T07:20:19;17.47;;;10.50;;
52208;SDS011;38507;53.132;6.394;2023-03-01T07:22:49;16.23;;;10.07;;
52208;SDS011;38507;53.132;6.394;2023-03-01T07:25:15;18.47;;;10.70;;
52208;SDS011;38507;53.132;6.394;2023-03-01T07:27:41;17.93;;;10.37;;
52208;SDS011;38507;53.132;6.394;2023-03-01T07:30:07;20.07;;;11.70;;
52208;SDS011;38507;53.132;6.394;2023-03-01T07:32:33;19.37;;;11.23;;
52208;SDS011;38507;53.132;6.394;2023-03-01T07:34:59;15.93;;;10.70;;
52208;SDS011;38507;53.132;6.394;2023-03-01T07:37:24;17.87;;;11.23;;
52208;SDS011;38507;53.132;6.394;2023-03-01T07:39:50;20.77;;;12.10;;
52208;SDS011;38507;53.132;6.394;2023-03-01T07:42:22;19.37;;;11.07;;
52208;SDS011;38507;53.132;6.394;2023-03-01T07:44:47;19.30;;;11.43;;
52208;SDS011;38507;53.132;6.394;2023-03-01T07:47:13;25.07;;;12.30;;
52208;SDS011;38507;53.132;6.394;2023-03-01T07:49:39;23.02;;;12.15;;
52208;SDS011;38507;53.132;6.394;2023-03-01T07:52:04;24.65;;;13.38;;
52208;SDS011;38507;53.132;6.394;2023-03-01T07:54:30;20.90;;;12.30;;
52208;SDS011;38507;53.132;6.394;2023-03-01T07:56:56;23.23;;;12.95;;
52208;SDS011;38507;53.132;6.394;2023-03-01T07:59:22;19.65;;;12.30;;
52208;SDS011;38507;53.132;6.394;2023-03-01T08:01:54;22.58;;;12.50;;
52208;SDS011;38507;53.132;6.394;2023-03-01T08:04:20;20.38;;;12.30;;
52208;SDS011;38507;53.132;6.394;2023-03-01T08:06:46;20.33;;;12.25;;
52208;SDS011;38507;53.132;6.394;2023-03-01T08:09:12;21.45;;;14.13;;
52208;SDS011;38507;53.132;6.394;2023-03-01T08:11:38;23.02;;;14.52;;
52208;SDS011;38507;53.132;6.394;2023-03-01T08:14:04;24.52;;;15.20;;
52208;SDS011;38507;53.132;6.394;2023-03-01T08:16:30;25.45;;;15.75;;
52208;SDS011;38507;53.132;6.394;2023-03-01T08:18:57;33.10;;;17.33;;
52208;SDS011;38507;53.132;6.394;2023-03-01T08:21:26;27.10;;;16.42;;
52208;SDS011;38507;53.132;6.394;2023-03-01T08:23:52;32.67;;;17.10;;
52208;SDS011;38507;53.132;6.394;2023-03-01T08:26:18;30.42;;;18.40;;
52208;SDS011;38507;53.132;6.394;2023-03-01T08:28:45;27.88;;;16.67;;
52208;SDS011;38507;53.132;6.394;2023-03-01T08:31:13;27.98;;;16.45;;
52208;SDS011;38507;53.132;6.394;2023-03-01T08:34:00;27.60;;;16.55;;
52208;SDS011;38507;53.132;6.394;2023-03-01T08:36:28;29.08;;;17.25;;
52208;SDS011;38507;53.132;6.394;2023-03-01T08:38:56;35.20;;;18.00;;
52208;SDS011;38507;53.132;6.394;2023-03-01T08:41:22;32.85;;;18.88;;
52208;SDS011;38507;53.132;6.394;2023-03-01T08:43:48;43.17;;;24.38;;
52208;SDS011;38507;53.132;6.394;2023-03-01T08:46:14;40.92;;;23.10;;
52208;SDS011;38507;53.132;6.394;2023-03-01T08:48:40;43.65;;;25.08;;
52208;SDS011;38507;53.132;6.394;2023-03-01T08:51:12;37.75;;;21.98;;
52208;SDS011;38507;53.132;6.394;2023-03-01T08:53:39;42.40;;;25.05;;
52208;SDS011;38507;53.132;6.394;2023-03-01T08:56:06;42.35;;;21.88;;
52208;SDS011;38507;53.132;6.394;2023-03-01T08:58:32;40.30;;;22.10;;
52208;SDS011;38507;53.132;6.394;2023-03-01T09:00:58;41.95;;;23.75;;
52208;SDS011;38507;53.132;6.394;2023-03-01T09:03:24;41.92;;;24.40;;
52208;SDS011;38507;53.132;6.394;2023-03-01T09:05:50;39.33;;;22.27;;
52208;SDS011;38507;53.132;6.394;2023-03-01T09:08:17;42.03;;;23.58;;
52208;SDS011;38507;53.132;6.394;2023-03-01T09:10:43;37.35;;;23.13;;
52208;SDS011;38507;53.132;6.394;2023-03-01T09:13:09;38.95;;;24.02;;
52208;SDS011;38507;53.132;6.394;2023-03-01T09:15:38;40.65;;;24.02;;
52208;SDS011;38507;53.132;6.394;2023-03-01T09:18:04;41.97;;;24.35;;
52208;SDS011;38507;53.132;6.394;2023-03-01T09:20:30;38.83;;;24.00;;
52208;SDS011;38507;53.132;6.394;2023-03-01T09:22:57;40.47;;;23.40;;
52208;SDS011;38507;53.132;6.394;2023-03-01T09:25:23;38.58;;;23.27;;
52208;SDS011;38507;53.132;6.394;2023-03-01T09:27:52;40.05;;;23.20;;
52208;SDS011;38507;53.132;6.394;2023-03-01T09:30:18;40.95;;;23.30;;
52208;SDS011;38507;53.132;6.394;2023-03-01T09:32:44;38.10;;;23.02;;
52208;SDS011;38507;53.132;6.394;2023-03-01T09:35:10;42.30;;;22.65;;
52208;SDS011;38507;53.132;6.394;2023-03-01T09:37:36;38.47;;;23.52;;
52208;SDS011;38507;53.132;6.394;2023-03-01T09:40:03;33.88;;;21.25;;
52208;SDS011;38507;53.132;6.394;2023-03-01T09:42:32;38.53;;;22.70;;
52208;SDS011;38507;53.132;6.394;2023-03-01T09:45:01;35.30;;;22.17;;
52208;SDS011;38507;53.132;6.394;2023-03-01T09:47:30;31.10;;;21.55;;
52208;SDS011;38507;53.132;6.394;2023-03-01T09:55:11;33.28;;;20.17;;
52208;SDS011;38507;53.132;6.394;2023-03-01T09:57:53;31.42;;;20.63;;
52208;SDS011;38507;53.132;6.394;2023-03-01T10:00:33;26.15;;;17.50;;
52208;SDS011;38507;53.132;6.394;2023-03-01T10:12:18;19.35;;;12.73;;
52208;SDS011;38507;53.132;6.394;2023-03-01T10:19:55;22.10;;;14.68;;
52208;SDS011;38507;53.132;6.394;2023-03-01T10:22:28;23.85;;;15.98;;
52208;SDS011;38507;53.132;6.394;2023-03-01T10:24:59;22.55;;;15.13;;
52208;SDS011;38507;53.132;6.394;2023-03-01T10:32:37;17.67;;;12.20;;
52208;SDS011;38507;53.132;6.394;2023-03-01T10:35:36;17.88;;;12.18;;
52208;SDS011;38507;53.132;6.394;2023-03-01T10:40:34;16.33;;;10.90;;
52208;SDS011;38507;53.132;6.394;2023-03-01T10:43:05;18.15;;;11.95;;
52208;SDS011;38507;53.132;6.394;2023-03-01T10:45:35;17.08;;;12.07;;
52208;SDS011;38507;53.132;6.394;2023-03-01T10:48:06;17.80;;;12.15;;
52208;SDS011;38507;53.132;6.394;2023-03-01T10:56:01;19.25;;;12.68;;
52208;SDS011;38507;53.132;6.394;2023-03-01T10:58:30;19.80;;;11.88;;
52208;SDS011;38507;53.132;6.394;2023-03-01T11:00:58;17.55;;;11.95;;
52208;SDS011;38507;53.132;6.394;2023-03-01T11:03:33;14.50;;;10.82;;
52208;SDS011;38507;53.132;6.394;2023-03-01T11:08:40;16.50;;;11.00;;
52208;SDS011;38507;53.132;6.394;2023-03-01T11:13:51;17.55;;;10.82;;
52208;SDS011;38507;53.132;6.394;2023-03-01T11:16:41;17.35;;;11.45;;
52208;SDS011;38507;53.132;6.394;2023-03-01T11:21:39;14.57;;;9.30;;
52208;SDS011;38507;53.132;6.394;2023-03-01T11:24:08;13.25;;;9.30;;
52208;SDS011;38507;53.132;6.394;2023-03-01T11:26:37;14.20;;;9.45;;
52208;SDS011;38507;53.132;6.394;2023-03-01T11:29:07;15.15;;;8.95;;
52208;SDS011;38507;53.132;6.394;2023-03-01T11:32:02;17.08;;;9.23;;
52208;SDS011;38507;53.132;6.394;2023-03-01T11:40:24;17.90;;;11.55;;
52208;SDS011;38507;53.132;6.394;2023-03-01T11:46:21;15.77;;;10.50;;
52208;SDS011;38507;53.132;6.394;2023-03-01T11:57:19;18.77;;;12.57;;
52208;SDS011;38507;53.132;6.394;2023-03-01T12:06:01;16.92;;;11.10;;
52208;SDS011;38507;53.132;6.394;2023-03-01T12:14:23;15.38;;;10.15;;
52208;SDS011;38507;53.132;6.394;2023-03-01T12:19:46;13.68;;;9.88;;
52208;SDS011;38507;53.132;6.394;2023-03-01T12:28:17;13.15;;;10.15;;
52208;SDS011;38507;53.132;6.394;2023-03-01T12:36:49;17.00;;;11.48;;
52208;SDS011;38507;53.132;6.394;2023-03-01T12:42:04;17.30;;;11.77;;
52208;SDS011;38507;53.132;6.394;2023-03-01T12:50:23;16.92;;;11.07;;
52208;SDS011;38507;53.132;6.394;2023-03-01T12:52:55;16.90;;;10.07;;
52208;SDS011;38507;53.132;6.394;2023-03-01T12:55:24;12.30;;;8.93;;
52208;SDS011;38507;53.132;6.394;2023-03-01T12:57:59;14.98;;;10.15;;
52208;SDS011;38507;53.132;6.394;2023-03-01T13:06:25;13.30;;;9.95;;
52208;SDS011;38507;53.132;6.394;2023-03-01T13:11:29;15.38;;;9.48;;
52208;SDS011;38507;53.132;6.394;2023-03-01T13:16:44;13.23;;;9.48;;
52208;SDS011;38507;53.132;6.394;2023-03-01T13:19:17;13.15;;;9.95;;
52208;SDS011;38507;53.132;6.394;2023-03-01T13:21:44;13.25;;;9.43;;
52208;SDS011;38507;53.132;6.394;2023-03-01T13:29:53;13.90;;;9.50;;
52208;SDS011;38507;53.132;6.394;2023-03-01T13:32:29;16.23;;;9.35;;
52208;SDS011;38507;53.132;6.394;2023-03-01T13:35:00;12.93;;;9.60;;
52208;SDS011;38507;53.132;6.394;2023-03-01T13:37:32;15.20;;;9.60;;
52208;SDS011;38507;53.132;6.394;2023-03-01T13:42:51;12.77;;;9.77;;
52208;SDS011;38507;53.132;6.394;2023-03-01T13:48:15;15.27;;;10.30;;
52208;SDS011;38507;53.132;6.394;2023-03-01T13:50:50;11.85;;;9.05;;
52208;SDS011;38507;53.132;6.394;2023-03-01T13:53:20;15.85;;;9.93;;
52208;SDS011;38507;53.132;6.394;2023-03-01T13:55:57;15.60;;;10.65;;
52208;SDS011;38507;53.132;6.394;2023-03-01T13:58:27;14.65;;;10.95;;
52208;SDS011;38507;53.132;6.394;2023-03-01T14:01:02;14.63;;;9.50;;
52208;SDS011;38507;53.132;6.394;2023-03-01T14:03:30;13.95;;;10.73;;
52208;SDS011;38507;53.132;6.394;2023-03-01T14:08:31;15.45;;;10.50;;
52208;SDS011;38507;53.132;6.394;2023-03-01T14:11:05;15.38;;;10.82;;
52208;SDS011;38507;53.132;6.394;2023-03-01T14:13:48;13.25;;;10.18;;
52208;SDS011;38507;53.132;6.394;2023-03-01T14:16:45;14.15;;;10.40;;
52208;SDS011;38507;53.132;6.394;2023-03-01T14:19:24;18.40;;;11.45;;
52208;SDS011;38507;53.132;6.394;2023-03-01T14:22:12;12.98;;;9.95;;
52208;SDS011;38507;53.132;6.394;2023-03-01T14:24:56;14.30;;;10.55;;
52208;SDS011;38507;53.132;6.394;2023-03-01T14:27:28;17.15;;;11.00;;
52208;SDS011;38507;53.132;6.394;2023-03-01T14:30:01;12.60;;;9.65;;
52208;SDS011;38507;53.132;6.394;2023-03-01T14:32:30;12.75;;;10.20;;
52208;SDS011;38507;53.132;6.394;2023-03-01T14:34:57;13.98;;;9.77;;
52208;SDS011;38507;53.132;6.394;2023-03-01T14:37:26;14.63;;;9.88;;
52208;SDS011;38507;53.132;6.394;2023-03-01T14:39:57;12.68;;;9.40;;
52208;SDS011;38507;53.132;6.394;2023-03-01T14:42:25;12.52;;;9.50;;
52208;SDS011;38507;53.132;6.394;2023-03-01T14:44:54;13.15;;;9.40;;
52208;SDS011;38507;53.132;6.394;2023-03-01T14:47:26;18.42;;;10.20;;
52208;SDS011;38507;53.132;6.394;2023-03-01T14:49:55;14.32;;;10.07;;
52208;SDS011;38507;53.132;6.394;2023-03-01T14:52:34;12.57;;;9.35;;
52208;SDS011;38507;53.132;6.394;2023-03-01T14:55:03;16.20;;;9.98;;
52208;SDS011;38507;53.132;6.394;2023-03-01T14:57:31;15.07;;;10.25;;
52208;SDS011;38507;53.132;6.394;2023-03-01T14:59:58;14.35;;;10.38;;
52208;SDS011;38507;53.132;6.394;2023-03-01T15:02:28;14.70;;;10.73;;
52208;SDS011;38507;53.132;6.394;2023-03-01T15:04:57;15.35;;;11.52;;
52208;SDS011;38507;53.132;6.394;2023-03-01T15:07:33;15.07;;;11.40;;
52208;SDS011;38507;53.132;6.394;2023-03-01T15:10:03;14.95;;;11.55;;
52208;SDS011;38507;53.132;6.394;2023-03-01T15:12:37;19.02;;;12.15;;
52208;SDS011;38507;53.132;6.394;2023-03-01T15:18:02;18.20;;;11.70;;
52208;SDS011;38507;53.132;6.394;2023-03-01T15:20:30;16.85;;;12.13;;
52208;SDS011;38507;53.132;6.394;2023-03-01T15:23:00;18.17;;;12.05;;
52208;SDS011;38507;53.132;6.394;2023-03-01T15:25:28;19.08;;;12.43;;
52208;SDS011;38507;53.132;6.394;2023-03-01T15:27:56;15.82;;;12.60;;
52208;SDS011;38507;53.132;6.394;2023-03-01T15:35:48;17.98;;;12.18;;
52208;SDS011;38507;53.132;6.394;2023-03-01T15:41:01;16.90;;;12.15;;
52208;SDS011;38507;53.132;6.394;2023-03-01T15:43:39;19.58;;;12.07;;
52208;SDS011;38507;53.132;6.394;2023-03-01T15:46:22;18.92;;;12.40;;
52208;SDS011;38507;53.132;6.394;2023-03-01T15:48:59;16.38;;;12.07;;
52208;SDS011;38507;53.132;6.394;2023-03-01T15:51:28;16.95;;;12.07;;
52208;SDS011;38507;53.132;6.394;2023-03-01T15:53:57;16.52;;;12.77;;
52208;SDS011;38507;53.132;6.394;2023-03-01T15:56:25;14.63;;;11.13;;
52208;SDS011;38507;53.132;6.394;2023-03-01T15:58:51;16.77;;;11.70;;
52208;SDS011;38507;53.132;6.394;2023-03-01T16:01:16;17.77;;;12.18;;
52208;SDS011;38507;53.132;6.394;2023-03-01T16:03:42;17.25;;;12.10;;
52208;SDS011;38507;53.132;6.394;2023-03-01T16:06:09;16.92;;;11.63;;
52208;SDS011;38507;53.132;6.394;2023-03-01T16:08:36;16.38;;;12.07;;
52208;SDS011;38507;53.132;6.394;2023-03-01T16:11:03;17.65;;;12.43;;
52208;SDS011;38507;53.132;6.394;2023-03-01T16:13:39;16.88;;;12.02;;
52208;SDS011;38507;53.132;6.394;2023-03-01T16:16:04;16.08;;;12.25;;
52208;SDS011;38507;53.132;6.394;2023-03-01T16:18:30;20.23;;;12.23;;
52208;SDS011;38507;53.132;6.394;2023-03-01T16:20:56;19.52;;;12.20;;
52208;SDS011;38507;53.132;6.394;2023-03-01T16:23:21;17.30;;;12.20;;
52208;SDS011;38507;53.132;6.394;2023-03-01T16:25:49;18.25;;;12.68;;
52208;SDS011;38507;53.132;6.394;2023-03-01T16:28:15;17.00;;;12.23;;
52208;SDS011;38507;53.132;6.394;2023-03-01T16:30:45;17.73;;;12.35;;
52208;SDS011;38507;53.132;6.394;2023-03-01T16:33:12;17.67;;;13.00;;
52208;SDS011;38507;53.132;6.394;2023-03-01T16:35:41;18.42;;;12.10;;
52208;SDS011;38507;53.132;6.394;2023-03-01T16:38:06;17.58;;;12.48;;
52208;SDS011;38507;53.132;6.394;2023-03-01T16:40:32;17.08;;;11.95;;
52208;SDS011;38507;53.132;6.394;2023-03-01T16:42:58;17.45;;;12.77;;
52208;SDS011;38507;53.132;6.394;2023-03-01T16:45:27;24.55;;;12.60;;
52208;SDS011;38507;53.132;6.394;2023-03-01T16:47:58;17.88;;;12.25;;
52208;SDS011;38507;53.132;6.394;2023-03-01T16:50:24;20.27;;;13.27;;
52208;SDS011;38507;53.132;6.394;2023-03-01T16:52:50;19.00;;;12.77;;
52208;SDS011;38507;53.132;6.394;2023-03-01T16:55:15;19.95;;;13.75;;